This is the latest recevied weather packets stored in our database for station/object AI5YA-13. If no packets are shown the sender has not sent any weather packets the latest 1 day(s).
| Time | Temp. | Humidity | Pressure | Rain* | Wind** | Luminosity | Snow |
|---|---|---|---|---|---|---|---|
| 1778071983 | 12.22° C | 75% | 1013.7 hPa | 0 mm | - | 58 W/m² | - |
| 1778071378 | 12.78° C | 74% | 1013.1 hPa | 0 mm | - | 39 W/m² | - |
| 1778068655 | 14.44° C | 70% | 1012.8 hPa | 0 mm | - | 0 W/m² | - |
| 1778068353 | 14.44° C | 70% | 1012.6 hPa | 0 mm | - | 0 W/m² | - |
| 1778065933 | 15° C | 67% | 1012.2 hPa | 0 mm | - | 0 W/m² | - |
| 1778065629 | 15.56° C | 67% | 1012.2 hPa | 0 mm | - | 0 W/m² | - |
| 1778065327 | 15.56° C | 66% | 1012.2 hPa | 0 mm | - | 0 W/m² | - |
| 1778061997 | 19.44° C | 43% | 1011.8 hPa | 0 mm | - | 0 W/m² | - |
| 1778061393 | 18.89° C | 50% | 1011.4 hPa | 0 mm | - | 0 W/m² | - |
| 1778061089 | 18.33° C | 49% | 1011.3 hPa | 0 mm | - | 0 W/m² | - |
| 1778059274 | 17.78° C | 56% | 1011.1 hPa | 0 mm | - | 0 W/m² | - |
| 1778058972 | 17.22° C | 57% | 1011.1 hPa | 0 mm | - | 0 W/m² | - |
| 1778057456 | 17.22° C | 57% | 1010.8 hPa | 0 mm | - | 0 W/m² | - |
| 1778056547 | 17.22° C | 58% | 1010.8 hPa | 0 mm | - | 0 W/m² | - |
| 1778056244 | 17.22° C | 59% | 1011.1 hPa | 0 mm | - | 0 W/m² | - |
| 1778055941 | 17.22° C | 58% | 1010.8 hPa | 0 mm | - | 0 W/m² | - |
| 1778055335 | 17.22° C | 58% | 1010.9 hPa | 0 mm | - | 0 W/m² | - |
| 1778055032 | 17.22° C | 59% | 1010.9 hPa | 0 mm | - | 0 W/m² | - |
| 1778054730 | 17.22° C | 59% | 1010.8 hPa | 0 mm | - | 0 W/m² | - |
| 1778053821 | 17.78° C | 56% | 1011 hPa | 0 mm | - | 0 W/m² | - |
| 1778053215 | 17.78° C | 55% | 1010.8 hPa | 0 mm | - | 0 W/m² | - |
| 1778052610 | 17.78° C | 56% | 1010.7 hPa | 0 mm | - | 0 W/m² | - |
| 1778052005 | 17.78° C | 58% | 1010.6 hPa | 0 mm | - | 0 W/m² | - |
| 1778050188 | 17.78° C | 57% | 1010.7 hPa | 0 mm | - | 0 W/m² | - |
| 1778049278 | 17.78° C | 58% | 1010.7 hPa | 0 mm | - | 0 W/m² | - |
* Rain latest hour (hover to see other rain measurements)
** Current wind speed in m/s (hover to see current wind gust speed)